sensor_id;sensor_type;location;lat;lon;timestamp;pressure;altitude;pressure_sealevel;temperature;humidity
75072;BME280;63651;55.728;38.022;2023-04-05T00:00:42;99694.34;;;17.21;nan
75072;BME280;63651;55.728;38.022;2023-04-05T00:05:43;99701.59;;;17.27;nan
75072;BME280;63651;55.728;38.022;2023-04-05T00:10:45;99685.84;;;17.22;nan
75072;BME280;63651;55.728;38.022;2023-04-05T00:21:07;99659.69;;;17.03;nan
75072;BME280;63651;55.728;38.022;2023-04-05T00:26:26;99678.66;;;17.05;nan
75072;BME280;63651;55.728;38.022;2023-04-05T00:31:28;99668.41;;;17.00;nan
75072;BME280;63651;55.728;38.022;2023-04-05T00:36:30;99681.97;;;17.07;nan
75072;BME280;63651;55.728;38.022;2023-04-05T00:41:31;99667.72;;;16.93;nan
75072;BME280;63651;55.728;38.022;2023-04-05T00:46:35;99699.53;;;17.06;nan
75072;BME280;63651;55.728;38.022;2023-04-05T00:51:37;99698.94;;;17.04;nan
75072;BME280;63651;55.728;38.022;2023-04-05T00:56:39;99674.03;;;16.93;nan
75072;BME280;63651;55.728;38.022;2023-04-05T01:01:40;99696.19;;;17.04;nan
75072;BME280;63651;55.728;38.022;2023-04-05T01:11:47;99679.28;;;16.83;nan
75072;BME280;63651;55.728;38.022;2023-04-05T01:16:49;99722.06;;;17.08;nan
75072;BME280;63651;55.728;38.022;2023-04-05T01:28:10;99706.97;;;16.82;nan
75072;BME280;63651;55.728;38.022;2023-04-05T01:38:29;99671.22;;;16.53;nan
75072;BME280;63651;55.728;38.022;2023-04-05T01:43:31;99712.44;;;16.82;nan
75072;BME280;63651;55.728;38.022;2023-04-05T01:48:32;99712.59;;;16.75;nan
75072;BME280;63651;55.728;38.022;2023-04-05T01:53:33;99702.00;;;16.67;nan
75072;BME280;63651;55.728;38.022;2023-04-05T01:58:34;99712.47;;;16.70;nan
75072;BME280;63651;55.728;38.022;2023-04-05T02:03:35;99719.28;;;16.68;nan
75072;BME280;63651;55.728;38.022;2023-04-05T02:08:36;99721.28;;;16.72;nan
75072;BME280;63651;55.728;38.022;2023-04-05T02:13:37;99727.63;;;16.73;nan
75072;BME280;63651;55.728;38.022;2023-04-05T02:18:38;99725.00;;;16.66;nan
75072;BME280;63651;55.728;38.022;2023-04-05T02:23:39;99726.41;;;16.57;nan
75072;BME280;63651;55.728;38.022;2023-04-05T02:28:40;99726.06;;;16.53;nan
75072;BME280;63651;55.728;38.022;2023-04-05T02:33:41;99725.13;;;16.36;nan
75072;BME280;63651;55.728;38.022;2023-04-05T02:38:42;99723.69;;;16.33;nan
75072;BME280;63651;55.728;38.022;2023-04-05T02:43:43;99706.53;;;16.26;nan
75072;BME280;63651;55.728;38.022;2023-04-05T02:48:44;99736.69;;;16.38;nan
75072;BME280;63651;55.728;38.022;2023-04-05T02:53:46;99742.75;;;16.40;nan
75072;BME280;63651;55.728;38.022;2023-04-05T02:58:48;99751.34;;;16.32;nan
75072;BME280;63651;55.728;38.022;2023-04-05T03:03:49;99733.47;;;16.18;nan
75072;BME280;63651;55.728;38.022;2023-04-05T03:08:50;99752.41;;;16.43;nan
75072;BME280;63651;55.728;38.022;2023-04-05T03:13:51;99749.19;;;16.34;nan
75072;BME280;63651;55.728;38.022;2023-04-05T03:18:52;99769.47;;;16.45;nan
75072;BME280;63651;55.728;38.022;2023-04-05T03:23:53;99761.13;;;16.40;nan
75072;BME280;63651;55.728;38.022;2023-04-05T03:28:55;99766.97;;;16.43;nan
75072;BME280;63651;55.728;38.022;2023-04-05T03:33:56;99767.44;;;16.28;nan
75072;BME280;63651;55.728;38.022;2023-04-05T03:38:57;99765.06;;;16.32;nan
75072;BME280;63651;55.728;38.022;2023-04-05T03:43:58;99775.41;;;16.30;nan
75072;BME280;63651;55.728;38.022;2023-04-05T03:48:59;99788.06;;;16.43;nan
75072;BME280;63651;55.728;38.022;2023-04-05T03:54:01;99809.06;;;17.07;nan
75072;BME280;63651;55.728;38.022;2023-04-05T03:59:02;99776.03;;;16.67;nan
75072;BME280;63651;55.728;38.022;2023-04-05T04:04:03;99802.41;;;16.68;nan
75072;BME280;63651;55.728;38.022;2023-04-05T04:09:04;99807.41;;;16.83;nan
75072;BME280;63651;55.728;38.022;2023-04-05T04:14:08;99807.75;;;16.86;nan
75072;BME280;63651;55.728;38.022;2023-04-05T04:19:12;99791.19;;;16.70;nan
75072;BME280;63651;55.728;38.022;2023-04-05T04:24:17;99823.03;;;16.71;nan
75072;BME280;63651;55.728;38.022;2023-04-05T04:29:18;99791.41;;;16.56;nan
75072;BME280;63651;55.728;38.022;2023-04-05T04:34:19;99826.63;;;16.71;nan
75072;BME280;63651;55.728;38.022;2023-04-05T04:39:20;99824.94;;;16.70;nan
75072;BME280;63651;55.728;38.022;2023-04-05T04:44:26;99830.31;;;16.88;nan
75072;BME280;63651;55.728;38.022;2023-04-05T04:49:29;99751.09;;;16.45;nan
75072;BME280;63651;55.728;38.022;2023-04-05T04:54:31;99815.41;;;16.84;nan
75072;BME280;63651;55.728;38.022;2023-04-05T04:59:33;99833.19;;;16.93;nan
75072;BME280;63651;55.728;38.022;2023-04-05T05:04:34;99847.75;;;17.06;nan
75072;BME280;63651;55.728;38.022;2023-04-05T05:09:41;99852.63;;;17.04;nan
75072;BME280;63651;55.728;38.022;2023-04-05T05:14:42;99856.09;;;17.11;nan
75072;BME280;63651;55.728;38.022;2023-04-05T05:19:43;99836.28;;;16.97;nan
75072;BME280;63651;55.728;38.022;2023-04-05T05:24:44;99868.63;;;17.07;nan
75072;BME280;63651;55.728;38.022;2023-04-05T05:29:46;99859.28;;;17.19;nan
75072;BME280;63651;55.728;38.022;2023-04-05T05:34:48;99849.41;;;17.18;nan
75072;BME280;63651;55.728;38.022;2023-04-05T05:39:49;99854.13;;;17.35;nan
75072;BME280;63651;55.728;38.022;2023-04-05T05:44:50;99875.34;;;17.51;nan
75072;BME280;63651;55.728;38.022;2023-04-05T05:49:51;99868.16;;;17.62;nan
75072;BME280;63651;55.728;38.022;2023-04-05T05:54:52;99877.47;;;17.72;nan
75072;BME280;63651;55.728;38.022;2023-04-05T05:59:53;99880.56;;;17.76;nan
75072;BME280;63651;55.728;38.022;2023-04-05T06:04:54;99886.53;;;17.73;nan
75072;BME280;63651;55.728;38.022;2023-04-05T06:09:55;99876.88;;;17.70;nan
75072;BME280;63651;55.728;38.022;2023-04-05T06:14:56;99895.78;;;17.95;nan
75072;BME280;63651;55.728;38.022;2023-04-05T06:19:57;99899.13;;;17.97;nan
75072;BME280;63651;55.728;38.022;2023-04-05T06:24:58;99902.91;;;18.08;nan
75072;BME280;63651;55.728;38.022;2023-04-05T06:29:59;99899.75;;;18.16;nan
75072;BME280;63651;55.728;38.022;2023-04-05T06:35:00;99892.94;;;18.18;nan
75072;BME280;63651;55.728;38.022;2023-04-05T06:40:05;99893.66;;;18.14;nan
75072;BME280;63651;55.728;38.022;2023-04-05T06:45:07;99902.72;;;18.26;nan
75072;BME280;63651;55.728;38.022;2023-04-05T06:50:08;99900.50;;;18.40;nan
75072;BME280;63651;55.728;38.022;2023-04-05T06:55:10;99902.25;;;18.46;nan
75072;BME280;63651;55.728;38.022;2023-04-05T07:00:12;99897.19;;;18.54;nan
75072;BME280;63651;55.728;38.022;2023-04-05T07:05:13;99901.22;;;18.80;nan
75072;BME280;63651;55.728;38.022;2023-04-05T07:10:14;99888.13;;;18.71;nan
75072;BME280;63651;55.728;38.022;2023-04-05T07:15:15;99885.53;;;18.64;nan
75072;BME280;63651;55.728;38.022;2023-04-05T07:20:16;99897.47;;;18.86;nan
75072;BME280;63651;55.728;38.022;2023-04-05T07:25:38;99894.19;;;18.90;nan
75072;BME280;63651;55.728;38.022;2023-04-05T07:30:40;99889.50;;;19.07;nan
75072;BME280;63651;55.728;38.022;2023-04-05T07:35:41;99902.41;;;19.23;nan
75072;BME280;63651;55.728;38.022;2023-04-05T07:41:01;99919.69;;;19.18;nan
75072;BME280;63651;55.728;38.022;2023-04-05T07:47:28;99927.31;;;19.11;35.91
75072;BME280;63651;55.728;38.022;2023-04-05T07:52:29;99924.75;;;18.88;35.71
75072;BME280;63651;55.728;38.022;2023-04-05T07:57:30;99919.47;;;18.86;36.17
75072;BME280;63651;55.728;38.022;2023-04-05T08:02:31;99923.81;;;18.99;35.75
75072;BME280;63651;55.728;38.022;2023-04-05T08:07:32;99917.72;;;18.97;35.82
75072;BME280;63651;55.728;38.022;2023-04-05T08:12:33;99905.72;;;18.86;35.95
75072;BME280;63651;55.728;38.022;2023-04-05T08:17:34;99905.59;;;19.15;35.32
75072;BME280;63651;55.728;38.022;2023-04-05T08:22:35;99910.19;;;19.09;35.49
75072;BME280;63651;55.728;38.022;2023-04-05T08:27:36;99909.47;;;18.97;34.98
75072;BME280;63651;55.728;38.022;2023-04-05T08:32:37;99925.53;;;19.22;35.17
75072;BME280;63651;55.728;38.022;2023-04-05T08:37:39;99928.28;;;19.22;35.02
75072;BME280;63651;55.728;38.022;2023-04-05T08:43:05;99921.19;;;19.26;34.96
75072;BME280;63651;55.728;38.022;2023-04-05T08:48:09;99908.91;;;19.34;34.96
75072;BME280;63651;55.728;38.022;2023-04-05T08:53:11;99915.56;;;19.38;35.14
75072;BME280;63651;55.728;38.022;2023-04-05T08:58:12;99916.81;;;19.64;34.62
75072;BME280;63651;55.728;38.022;2023-04-05T09:03:20;99907.19;;;19.66;34.28
75072;BME280;63651;55.728;38.022;2023-04-05T09:08:22;99911.03;;;19.65;34.60
75072;BME280;63651;55.728;38.022;2023-04-05T09:13:24;99913.53;;;19.67;34.44
75072;BME280;63651;55.728;38.022;2023-04-05T09:18:25;99918.66;;;19.80;34.36
75072;BME280;63651;55.728;38.022;2023-04-05T09:23:27;99908.47;;;20.02;33.82
75072;BME280;63651;55.728;38.022;2023-04-05T09:28:39;99911.91;;;20.14;33.84
75072;BME280;63651;55.728;38.022;2023-04-05T09:33:41;99901.81;;;20.25;33.55
75072;BME280;63651;55.728;38.022;2023-04-05T09:38:43;99908.38;;;20.19;33.00
75072;BME280;63651;55.728;38.022;2023-04-05T09:43:45;99912.13;;;20.35;32.53
75072;BME280;63651;55.728;38.022;2023-04-05T09:59:10;99903.22;;;20.28;32.32
75072;BME280;63651;55.728;38.022;2023-04-05T10:04:12;99875.53;;;20.44;32.00
75072;BME280;63651;55.728;38.022;2023-04-05T10:09:13;99897.13;;;20.53;32.28
75072;BME280;63651;55.728;38.022;2023-04-05T10:14:14;99905.59;;;20.41;32.46
75072;BME280;63651;55.728;38.022;2023-04-05T10:19:25;99898.06;;;20.63;31.91
75072;BME280;63651;55.728;38.022;2023-04-05T10:24:36;99895.38;;;20.73;31.63
75072;BME280;63651;55.728;38.022;2023-04-05T10:29:46;99904.75;;;20.72;31.81
75072;BME280;63651;55.728;38.022;2023-04-05T10:34:56;99888.72;;;20.69;31.75
75072;BME280;63651;55.728;38.022;2023-04-05T10:40:02;99878.25;;;20.71;31.56
75072;BME280;63651;55.728;38.022;2023-04-05T10:45:05;99885.63;;;20.93;31.55
75072;BME280;63651;55.728;38.022;2023-04-05T10:50:17;99872.22;;;20.80;31.34
75072;BME280;63651;55.728;38.022;2023-04-05T10:55:20;99893.06;;;20.92;31.37
75072;BME280;63651;55.728;38.022;2023-04-05T11:00:22;99903.91;;;20.99;31.25
75072;BME280;63651;55.728;38.022;2023-04-05T11:05:31;99890.78;;;21.21;32.38
75072;BME280;63651;55.728;38.022;2023-04-05T11:10:38;99875.63;;;20.87;31.73
75072;BME280;63651;55.728;38.022;2023-04-05T11:15:39;99880.19;;;20.71;31.64
75072;BME280;63651;55.728;38.022;2023-04-05T11:20:51;99891.97;;;20.93;31.24
75072;BME280;63651;55.728;38.022;2023-04-05T11:26:03;99867.06;;;20.83;31.46
75072;BME280;63651;55.728;38.022;2023-04-05T11:31:12;99872.34;;;20.90;31.66
75072;BME280;63651;55.728;38.022;2023-04-05T11:36:32;99869.28;;;20.86;31.59
75072;BME280;63651;55.728;38.022;2023-04-05T11:41:33;99879.53;;;20.91;31.56
75072;BME280;63651;55.728;38.022;2023-04-05T11:46:34;99878.25;;;20.71;31.78
75072;BME280;63651;55.728;38.022;2023-04-05T11:51:36;99872.13;;;20.64;31.76
75072;BME280;63651;55.728;38.022;2023-04-05T11:56:37;99865.25;;;20.67;31.86
75072;BME280;63651;55.728;38.022;2023-04-05T12:01:43;99866.69;;;20.74;31.56
75072;BME280;63651;55.728;38.022;2023-04-05T12:06:44;99865.94;;;20.52;31.80
75072;BME280;63651;55.728;38.022;2023-04-05T12:11:45;99870.53;;;20.73;31.51
75072;BME280;63651;55.728;38.022;2023-04-05T12:16:49;99864.63;;;20.60;31.61
75072;BME280;63651;55.728;38.022;2023-04-05T12:21:50;99871.06;;;20.70;31.37
75072;BME280;63651;55.728;38.022;2023-04-05T12:26:51;99854.84;;;20.47;31.31
75072;BME280;63651;55.728;38.022;2023-04-05T12:31:54;99869.56;;;20.58;31.13
75072;BME280;63651;55.728;38.022;2023-04-05T12:36:55;99860.94;;;20.49;31.27
75072;BME280;63651;55.728;38.022;2023-04-05T12:41:59;99849.69;;;20.56;31.20
75072;BME280;63651;55.728;38.022;2023-04-05T12:47:01;99866.78;;;20.85;30.92
75072;BME280;63651;55.728;38.022;2023-04-05T12:52:02;99865.81;;;20.69;31.33
75072;BME280;63651;55.728;38.022;2023-04-05T12:57:03;99861.81;;;20.55;31.12
75072;BME280;63651;55.728;38.022;2023-04-05T13:02:08;99859.25;;;20.43;31.43
75072;BME280;63651;55.728;38.022;2023-04-05T13:07:09;99865.38;;;20.50;31.72
75072;BME280;63651;55.728;38.022;2023-04-05T13:12:10;99853.81;;;20.53;32.15
75072;BME280;63651;55.728;38.022;2023-04-05T13:17:12;99856.31;;;20.28;32.93
75072;BME280;63651;55.728;38.022;2023-04-05T13:22:13;99851.16;;;20.36;32.79
75072;BME280;63651;55.728;38.022;2023-04-05T13:27:14;99869.72;;;20.41;33.12
75072;BME280;63651;55.728;38.022;2023-04-05T13:32:17;99875.38;;;20.56;33.07
75072;BME280;63651;55.728;38.022;2023-04-05T13:37:18;99869.97;;;20.39;33.23
75072;BME280;63651;55.728;38.022;2023-04-05T13:42:19;99861.16;;;20.42;33.11
75072;BME280;63651;55.728;38.022;2023-04-05T13:47:20;99860.84;;;20.39;33.12
75072;BME280;63651;55.728;38.022;2023-04-05T13:52:21;99863.53;;;20.34;33.01
75072;BME280;63651;55.728;38.022;2023-04-05T13:57:22;99867.19;;;20.12;33.29
75072;BME280;63651;55.728;38.022;2023-04-05T14:02:24;99856.47;;;19.89;33.13
75072;BME280;63651;55.728;38.022;2023-04-05T14:07:27;99874.38;;;20.13;33.21
75072;BME280;63651;55.728;38.022;2023-04-05T14:12:29;99884.72;;;20.28;33.05
75072;BME280;63651;55.728;38.022;2023-04-05T14:17:31;99886.09;;;20.26;33.03
75072;BME280;63651;55.728;38.022;2023-04-05T14:22:32;99881.75;;;20.35;32.96
75072;BME280;63651;55.728;38.022;2023-04-05T14:27:52;99897.75;;;20.33;33.04
75072;BME280;63651;55.728;38.022;2023-04-05T14:32:53;99896.53;;;20.45;33.02
75072;BME280;63651;55.728;38.022;2023-04-05T14:37:54;99896.88;;;20.54;32.70
75072;BME280;63651;55.728;38.022;2023-04-05T14:42:55;99898.59;;;20.60;32.46
75072;BME280;63651;55.728;38.022;2023-04-05T14:47:56;99897.72;;;20.55;32.45
75072;BME280;63651;55.728;38.022;2023-04-05T14:52:58;99893.97;;;20.39;32.33
75072;BME280;63651;55.728;38.022;2023-04-05T14:57:59;99910.47;;;20.61;32.20
75072;BME280;63651;55.728;38.022;2023-04-05T15:03:00;99911.03;;;20.63;32.36
75072;BME280;63651;55.728;38.022;2023-04-05T15:08:01;99913.97;;;20.51;32.24
75072;BME280;63651;55.728;38.022;2023-04-05T15:13:02;99920.81;;;20.75;31.83
75072;BME280;63651;55.728;38.022;2023-04-05T15:18:04;99917.91;;;20.33;32.23
75072;BME280;63651;55.728;38.022;2023-04-05T15:23:05;99936.53;;;20.21;32.17
75072;BME280;63651;55.728;38.022;2023-04-05T15:28:06;99936.94;;;20.08;32.50
75072;BME280;63651;55.728;38.022;2023-04-05T15:33:08;99940.25;;;20.10;32.64
75072;BME280;63651;55.728;38.022;2023-04-05T15:38:09;99946.56;;;20.05;32.75
75072;BME280;63651;55.728;38.022;2023-04-05T15:43:10;99960.53;;;19.99;32.90
75072;BME280;63651;55.728;38.022;2023-04-05T15:48:11;99962.72;;;19.75;33.59
75072;BME280;63651;55.728;38.022;2023-04-05T15:53:15;99966.38;;;19.80;34.97
75072;BME280;63651;55.728;38.022;2023-04-05T15:58:16;99979.91;;;19.48;35.72
75072;BME280;63651;55.728;38.022;2023-04-05T16:03:16;99973.84;;;19.46;35.88
75072;BME280;63651;55.728;38.022;2023-04-05T16:08:17;99984.88;;;19.30;35.54
75072;BME280;63651;55.728;38.022;2023-04-05T16:13:19;99990.38;;;19.30;35.50
75072;BME280;63651;55.728;38.022;2023-04-05T16:18:20;99987.13;;;19.16;36.21
75072;BME280;63651;55.728;38.022;2023-04-05T16:23:21;99993.41;;;19.11;36.21
75072;BME280;63651;55.728;38.022;2023-04-05T16:28:22;99996.97;;;18.95;36.83
75072;BME280;63651;55.728;38.022;2023-04-05T16:33:23;100004.41;;;18.95;36.61
75072;BME280;63651;55.728;38.022;2023-04-05T16:38:24;100000.97;;;18.71;36.60
75072;BME280;63651;55.728;38.022;2023-04-05T16:43:26;100021.22;;;18.65;36.85
75072;BME280;63651;55.728;38.022;2023-04-05T16:48:27;100022.53;;;18.62;36.75
75072;BME280;63651;55.728;38.022;2023-04-05T16:53:30;100025.81;;;18.47;37.08
75072;BME280;63651;55.728;38.022;2023-04-05T16:58:31;100025.13;;;18.40;36.83
75072;BME280;63651;55.728;38.022;2023-04-05T17:03:32;100032.72;;;18.50;36.92
75072;BME280;63651;55.728;38.022;2023-04-05T17:08:33;100039.00;;;18.34;36.93
75072;BME280;63651;55.728;38.022;2023-04-05T17:13:34;100047.13;;;18.40;36.71
75072;BME280;63651;55.728;38.022;2023-04-05T17:18:35;100064.00;;;18.32;36.49
75072;BME280;63651;55.728;38.022;2023-04-05T17:23:37;100063.66;;;18.29;36.46
75072;BME280;63651;55.728;38.022;2023-04-05T17:28:38;100043.34;;;18.18;36.75
75072;BME280;63651;55.728;38.022;2023-04-05T17:33:40;100063.56;;;18.12;36.74
75072;BME280;63651;55.728;38.022;2023-04-05T17:38:41;100054.84;;;18.03;36.27
75072;BME280;63651;55.728;38.022;2023-04-05T17:43:42;100063.31;;;18.02;36.53
75072;BME280;63651;55.728;38.022;2023-04-05T17:48:44;100065.13;;;17.96;36.45
75072;BME280;63651;55.728;38.022;2023-04-05T17:53:45;100066.34;;;17.88;36.14
75072;BME280;63651;55.728;38.022;2023-04-05T17:58:46;100051.03;;;17.81;36.65
75072;BME280;63651;55.728;38.022;2023-04-05T18:03:47;100075.41;;;17.89;36.20
75072;BME280;63651;55.728;38.022;2023-04-05T18:08:48;100078.78;;;17.79;35.73
75072;BME280;63651;55.728;38.022;2023-04-05T18:13:49;100077.47;;;17.70;36.00
75072;BME280;63651;55.728;38.022;2023-04-05T18:18:50;100086.78;;;17.81;36.44
75072;BME280;63651;55.728;38.022;2023-04-05T18:23:52;100092.28;;;17.69;36.23
75072;BME280;63651;55.728;38.022;2023-04-05T18:28:53;100084.59;;;17.48;36.44
75072;BME280;63651;55.728;38.022;2023-04-05T18:33:59;100078.97;;;17.43;36.22
75072;BME280;63651;55.728;38.022;2023-04-05T18:39:00;100090.78;;;17.55;36.29
75072;BME280;63651;55.728;38.022;2023-04-05T18:44:04;100090.91;;;17.37;36.42
75072;BME280;63651;55.728;38.022;2023-04-05T18:49:05;100086.00;;;17.39;36.03
75072;BME280;63651;55.728;38.022;2023-04-05T18:54:07;100089.94;;;17.31;36.33
75072;BME280;63651;55.728;38.022;2023-04-05T18:59:08;100100.53;;;17.16;36.38
75072;BME280;63651;55.728;38.022;2023-04-05T19:04:09;100095.59;;;17.06;36.29
75072;BME280;63651;55.728;38.022;2023-04-05T19:09:10;100103.25;;;17.04;36.51
75072;BME280;63651;55.728;38.022;2023-04-05T19:14:11;100099.19;;;17.07;36.50
75072;BME280;63651;55.728;38.022;2023-04-05T19:19:12;100111.31;;;17.29;36.58
75072;BME280;63651;55.728;38.022;2023-04-05T19:24:13;100124.31;;;17.34;36.17
75072;BME280;63651;55.728;38.022;2023-04-05T19:29:15;100114.88;;;17.30;36.46
75072;BME280;63651;55.728;38.022;2023-04-05T19:34:16;100105.97;;;17.04;36.36
75072;BME280;63651;55.728;38.022;2023-04-05T19:39:17;100122.91;;;17.01;36.95
75072;BME280;63651;55.728;38.022;2023-04-05T19:49:45;100123.19;;;17.11;36.74
75072;BME280;63651;55.728;38.022;2023-04-05T19:54:46;100129.00;;;17.03;36.69
75072;BME280;63651;55.728;38.022;2023-04-05T19:59:47;100119.13;;;16.84;37.26
75072;BME280;63651;55.728;38.022;2023-04-05T20:04:49;100111.38;;;16.62;37.14
75072;BME280;63651;55.728;38.022;2023-04-05T20:09:51;100135.31;;;16.74;37.45
75072;BME280;63651;55.728;38.022;2023-04-05T20:14:53;100136.97;;;16.56;38.03
75072;BME280;63651;55.728;38.022;2023-04-05T20:19:56;100135.91;;;16.57;37.63
75072;BME280;63651;55.728;38.022;2023-04-05T20:25:02;100098.28;;;16.46;37.32
75072;BME280;63651;55.728;38.022;2023-04-05T20:30:11;100151.38;;;16.52;37.87
75072;BME280;63651;55.728;38.022;2023-04-05T20:35:30;100130.91;;;16.36;37.98
75072;BME280;63651;55.728;38.022;2023-04-05T20:40:32;100141.94;;;16.48;37.72
75072;BME280;63651;55.728;38.022;2023-04-05T20:45:33;100159.59;;;16.52;37.95
75072;BME280;63651;55.728;38.022;2023-04-05T20:50:34;100163.41;;;16.51;37.85
75072;BME280;63651;55.728;38.022;2023-04-05T20:55:35;100171.88;;;16.49;38.11
75072;BME280;63651;55.728;38.022;2023-04-05T21:00:36;100160.13;;;16.42;38.05
75072;BME280;63651;55.728;38.022;2023-04-05T21:05:41;100176.66;;;16.36;38.43
75072;BME280;63651;55.728;38.022;2023-04-05T21:10:42;100170.25;;;16.23;38.31
75072;BME280;63651;55.728;38.022;2023-04-05T21:15:43;100177.19;;;16.26;39.01
75072;BME280;63651;55.728;38.022;2023-04-05T21:20:44;100176.06;;;16.33;38.35
75072;BME280;63651;55.728;38.022;2023-04-05T21:25:50;100174.91;;;16.41;38.19
75072;BME280;63651;55.728;38.022;2023-04-05T21:30:51;100183.66;;;16.31;38.35
75072;BME280;63651;55.728;38.022;2023-04-05T21:35:53;100171.94;;;16.43;37.97
75072;BME280;63651;55.728;38.022;2023-04-05T21:40:54;100177.50;;;16.36;38.26
75072;BME280;63651;55.728;38.022;2023-04-05T21:45:55;100175.97;;;16.40;38.24
75072;BME280;63651;55.728;38.022;2023-04-05T21:50:56;100173.69;;;16.37;37.87
75072;BME280;63651;55.728;38.022;2023-04-05T21:55:57;100169.19;;;16.24;38.40
75072;BME280;63651;55.728;38.022;2023-04-05T22:00:58;100175.06;;;16.28;38.23
75072;BME280;63651;55.728;38.022;2023-04-05T22:06:00;100175.84;;;16.35;38.15
75072;BME280;63651;55.728;38.022;2023-04-05T22:11:01;100170.88;;;16.25;38.26
75072;BME280;63651;55.728;38.022;2023-04-05T22:16:03;100184.50;;;16.14;38.36
75072;BME280;63651;55.728;38.022;2023-04-05T22:21:04;100191.97;;;16.25;38.26
75072;BME280;63651;55.728;38.022;2023-04-05T22:26:05;100180.47;;;16.16;38.01
75072;BME280;63651;55.728;38.022;2023-04-05T22:31:06;100178.94;;;16.20;38.04
75072;BME280;63651;55.728;38.022;2023-04-05T22:36:07;100184.13;;;16.28;38.04
75072;BME280;63651;55.728;38.022;2023-04-05T22:41:09;100175.03;;;16.10;38.13
75072;BME280;63651;55.728;38.022;2023-04-05T22:46:10;100185.09;;;16.16;37.91
75072;BME280;63651;55.728;38.022;2023-04-05T22:51:11;100179.09;;;16.25;37.81
75072;BME280;63651;55.728;38.022;2023-04-05T22:56:12;100181.22;;;16.23;37.83
75072;BME280;63651;55.728;38.022;2023-04-05T23:01:14;100181.09;;;15.93;38.37
75072;BME280;63651;55.728;38.022;2023-04-05T23:06:15;100177.47;;;15.99;38.31
75072;BME280;63651;55.728;38.022;2023-04-05T23:11:16;100175.72;;;16.05;38.27
75072;BME280;63651;55.728;38.022;2023-04-05T23:16:17;100185.78;;;16.11;37.83
75072;BME280;63651;55.728;38.022;2023-04-05T23:21:18;100159.03;;;15.88;37.65
75072;BME280;63651;55.728;38.022;2023-04-05T23:26:19;100178.19;;;15.88;38.34
75072;BME280;63651;55.728;38.022;2023-04-05T23:31:20;100167.34;;;15.75;38.60
75072;BME280;63651;55.728;38.022;2023-04-05T23:36:21;100176.91;;;15.91;38.33
75072;BME280;63651;55.728;38.022;2023-04-05T23:41:23;100173.44;;;15.77;38.56
75072;BME280;63651;55.728;38.022;2023-04-05T23:46:24;100172.94;;;15.62;38.48
75072;BME280;63651;55.728;38.022;2023-04-05T23:51:26;100179.22;;;15.69;38.06
75072;BME280;63651;55.728;38.022;2023-04-05T23:56:27;100169.97;;;15.57;38.37
